Dai2kousei — JD2542 — position and weather

sailwx.info

Track history (hours):
 
Tides and Currents Weather Stations Pressure Air Temp Water Temp Dewpoint Dewpoint Depression Visibility Wind Speed Wind Dir Waves Ship Positions

Dai2kousei

Last reported at 2015-Apr-18 01:06 UTC. Time now 2015-Apr-20 00:52 UTC.
Position N 34°01' E 134°42'.

Length 77 m; draft 4.6 m.

MMSI: 431000467.

Date/timePositionNaut miles runAvg speedWind from/ knotsBaromVisibWave heightAir tempDewpointWater temp
2015-Apr-18 01:06N 34°01' E 134°42'610.8
2015-Apr-18 00:33N 33°58' E 134°48'1110.9
2015-Apr-17 23:33N 33°52' E 134°59'240 8.9
2015-Apr-16 20:28N 34°50' E 139°41'19 9.2
2015-Apr-16 18:24N 34°56' E 140°03'8 9.7
2015-Apr-16 17:33N 35°01' E 140°11'20 9.2
2015-Apr-16 15:20N 35°15' E 140°30'10 9.5
2015-Apr-16 14:16N 35°23' E 140°38'9 9.7
2015-Apr-16 13:17N 35°31' E 140°45'16 9.3
2015-Apr-16 11:32N 35°44' E 140°56'1110.3
2015-Apr-16 10:25N 35°55' E 140°58'  
2015-Apr-09 09:28N 35°58' E 140°43'4 1.5
2015-Apr-09 07:04N 35°55' E 140°41'2 3.8
2015-Apr-09 06:33N 35°56' E 140°42'1 0.3
2015-Apr-09 02:23N 35°58' E 140°41'2 2.5
2015-Apr-09 01:32N 35°55' E 140°42'  
Track history (hours):
 
Tides and Currents Weather Stations Pressure Air Temp Water Temp Dewpoint Dewpoint Depression Visibility Wind Speed Wind Dir Waves Ship Positions

Dai2kousei

Last reported at 2015-Apr-18 01:06 UTC. Time now 2015-Apr-20 00:52 UTC.
Position N 34°01' E 134°42'.

Length 77 m; draft 4.6 m.

MMSI: 431000467.

Date/timePositionNaut miles runAvg speedWind from/ knotsBaromVisibWave heightAir tempDewpointWater temp
2015-Apr-18 01:06N 34°01' E 134°42'610.8
2015-Apr-18 00:33N 33°58' E 134°48'1110.9
2015-Apr-17 23:33N 33°52' E 134°59'240 8.9
2015-Apr-16 20:28N 34°50' E 139°41'19 9.2
2015-Apr-16 18:24N 34°56' E 140°03'8 9.7
2015-Apr-16 17:33N 35°01' E 140°11'20 9.2
2015-Apr-16 15:20N 35°15' E 140°30'10 9.5
2015-Apr-16 14:16N 35°23' E 140°38'9 9.7
2015-Apr-16 13:17N 35°31' E 140°45'16 9.3
2015-Apr-16 11:32N 35°44' E 140°56'1110.3
2015-Apr-16 10:25N 35°55' E 140°58'  
2015-Apr-09 09:28N 35°58' E 140°43'4 1.5
2015-Apr-09 07:04N 35°55' E 140°41'2 3.8
2015-Apr-09 06:33N 35°56' E 140°42'1 0.3
2015-Apr-09 02:23N 35°58' E 140°41'2 2.5
2015-Apr-09 01:32N 35°55' E 140°42'  

Dump ship's entire track history